Time;durP1;ratioP1;P1;durP2;ratioP2;P2;SDS_P1;SDS_P2;PMS_P1;PMS_P2;Temp;Humidity;BMP_temperature;BMP_pressure;BME280_temperature;BME280_humidity;BME280_pressure;Samples;Min_cycle;Max_cycle;Signal;HPM_P1;HPM_P2
2023/09/13 00:01:03;;;;;;;35.03;22.63;;;18.80;99.90;;;;;;5013881;28;20188;-74
2023/09/13 00:03:29;;;;;;;43.00;24.47;;;18.80;99.90;;;;;;5014815;28;20580;-73
2023/09/13 00:05:54;;;;;;;43.60;24.43;;;18.80;99.90;;;;;;5014964;28;20176;-74
2023/09/13 00:08:20;;;;;;;45.03;24.10;;;18.80;99.90;;;;;;5013950;28;20255;-74
2023/09/13 00:10:45;;;;;;;43.13;24.53;;;18.70;99.90;;;;;;5014038;28;20172;-74
2023/09/13 00:13:12;;;;;;;42.40;23.97;;;18.70;99.90;;;;;;5013651;28;20635;-74
2023/09/13 00:15:43;;;;;;;47.33;25.43;;;18.70;99.90;;;;;;5013856;28;20188;-75
2023/09/13 00:18:09;;;;;;;50.73;26.63;;;18.70;99.90;;;;;;5012059;28;20544;-73
2023/09/13 00:20:37;;;;;;;46.40;25.50;;;18.60;99.90;;;;;;5012432;28;20254;-74
2023/09/13 00:23:04;;;;;;;43.63;26.60;;;18.60;99.90;;;;;;5013623;28;20200;-73
2023/09/13 00:25:29;;;;;;;52.13;27.60;;;18.60;99.90;;;;;;5013819;28;20642;-73
2023/09/13 00:27:55;;;;;;;48.13;24.53;;;18.70;99.90;;;;;;5013514;28;20180;-73
2023/09/13 00:30:20;;;;;;;47.50;26.00;;;18.70;99.90;;;;;;5011930;28;20177;-74
2023/09/13 00:32:46;;;;;;;47.37;25.23;;;18.60;99.90;;;;;;5013581;28;20230;-73
2023/09/13 00:35:12;;;;;;;50.50;26.97;;;18.60;99.90;;;;;;5012176;28;20184;-74
2023/09/13 00:37:38;;;;;;;52.47;27.60;;;18.60;99.90;;;;;;5013316;28;20561;-74
2023/09/13 00:40:04;;;;;;;45.50;26.27;;;18.60;99.90;;;;;;5013177;28;20547;-73
2023/09/13 00:42:30;;;;;;;48.90;25.80;;;18.60;99.90;;;;;;5013439;28;20816;-76
2023/09/13 00:44:56;;;;;;;44.67;24.87;;;18.60;99.90;;;;;;5013778;28;20267;-75
2023/09/13 00:47:21;;;;;;;45.33;24.70;;;18.60;99.90;;;;;;5013027;28;20202;-77
2023/09/13 00:49:47;;;;;;;41.47;24.00;;;18.50;99.90;;;;;;5012992;28;20187;-75
2023/09/13 00:52:15;;;;;;;45.97;25.57;;;18.50;99.90;;;;;;5013043;28;20216;-75
2023/09/13 00:54:40;;;;;;;43.47;24.70;;;18.50;99.90;;;;;;5013354;28;20196;-75
2023/09/13 00:57:06;;;;;;;49.27;24.37;;;18.50;99.90;;;;;;5012956;28;20742;-75
2023/09/13 00:59:32;;;;;;;48.73;24.70;;;18.60;99.90;;;;;;5012649;28;20600;-75
2023/09/13 01:01:59;;;;;;;42.03;24.70;;;18.50;99.90;;;;;;5012740;28;20211;-76
2023/09/13 01:04:24;;;;;;;49.57;25.23;;;18.50;99.90;;;;;;5013030;28;20227;-76
2023/09/13 01:06:50;;;;;;;47.63;26.10;;;18.40;99.90;;;;;;5013000;28;20583;-76
2023/09/13 01:09:17;;;;;;;50.30;26.73;;;18.50;99.90;;;;;;5011359;28;20184;-76
2023/09/13 01:11:44;;;;;;;52.53;25.53;;;18.50;99.90;;;;;;5011594;28;20206;-76
2023/09/13 01:14:10;;;;;;;54.23;27.50;;;18.50;99.90;;;;;;5012118;28;20219;-77
2023/09/13 01:17:03;;;;;;;53.87;28.10;;;18.50;99.90;;;;;;5011588;28;20203;-76
2023/09/13 01:19:58;;;;;;;49.37;25.93;;;18.40;99.90;;;;;;5012477;28;20632;-76
2023/09/13 01:22:30;;;;;;;60.37;27.83;;;18.40;99.90;;;;;;5002138;28;20219;-76
2023/09/13 01:24:58;;;;;;;50.13;27.97;;;18.40;99.90;;;;;;5012560;28;20699;-76
2023/09/13 01:27:42;;;;;;;58.37;27.70;;;18.40;99.90;;;;;;5012551;28;20184;-75
2023/09/13 01:30:08;;;;;;;55.90;27.23;;;18.40;99.90;;;;;;5012171;28;20266;-75
2023/09/13 01:32:35;;;;;;;56.80;26.90;;;18.40;99.90;;;;;;5011672;28;20283;-75
2023/09/13 01:35:00;;;;;;;60.37;26.23;;;18.50;99.90;;;;;;5012360;28;20190;-76
2023/09/13 01:37:26;;;;;;;58.67;27.30;;;18.50;99.90;;;;;;5012366;28;20180;-75
2023/09/13 01:39:52;;;;;;;58.90;27.07;;;18.50;99.90;;;;;;5010494;28;20367;-75
2023/09/13 01:42:18;;;;;;;57.90;27.27;;;18.50;99.90;;;;;;5011892;28;20208;-75
2023/09/13 01:44:45;;;;;;;61.00;28.07;;;18.40;99.90;;;;;;5012328;28;20553;-75
2023/09/13 01:47:12;;;;;;;68.33;29.77;;;18.50;99.90;;;;;;5012128;28;20180;-76
2023/09/13 01:49:42;;;;;;;64.37;29.90;;;18.40;99.90;;;;;;5011717;28;20255;-75
2023/09/13 01:52:07;;;;;;;64.27;29.60;;;18.40;99.90;;;;;;5011686;28;20200;-76
2023/09/13 01:54:34;;;;;;;68.57;28.97;;;18.40;99.90;;;;;;5012060;28;20198;-75
2023/09/13 01:57:00;;;;;;;61.73;28.37;;;18.40;99.90;;;;;;5012065;28;20233;-75
2023/09/13 01:59:25;;;;;;;67.87;30.50;;;18.40;99.90;;;;;;5011781;28;20187;-76
2023/09/13 02:01:51;;;;;;;62.20;28.97;;;18.40;99.90;;;;;;5010391;28;20216;-75
2023/09/13 02:04:17;;;;;;;66.67;29.13;;;18.40;99.90;;;;;;5010504;28;20184;-76
2023/09/13 02:06:42;;;;;;;68.33;29.10;;;18.40;99.90;;;;;;5017518;28;20549;-75
2023/09/13 02:09:08;;;;;;;70.70;32.03;;;18.40;99.90;;;;;;5013196;28;20173;-75
2023/09/13 02:11:33;;;;;;;71.30;31.13;;;18.40;99.90;;;;;;5011684;28;20789;-74
2023/09/13 02:13:59;;;;;;;71.47;31.53;;;18.40;99.90;;;;;;5011747;28;20181;-75
2023/09/13 02:16:24;;;;;;;69.87;31.13;;;18.40;99.90;;;;;;5012018;28;20570;-75
2023/09/13 02:18:50;;;;;;;70.93;29.73;;;18.40;99.90;;;;;;5011665;28;20239;-76
2023/09/13 02:21:16;;;;;;;73.47;30.57;;;18.40;99.90;;;;;;5011609;28;20208;-74
2023/09/13 02:23:43;;;;;;;79.87;31.77;;;18.40;99.90;;;;;;5011642;28;20215;-75
2023/09/13 02:26:30;;;;;;;72.77;29.43;;;18.40;99.90;;;;;;5010163;28;20561;-75
2023/09/13 02:28:56;;;;;;;74.50;31.10;;;18.50;99.90;;;;;;5011593;28;20230;-76
2023/09/13 02:31:23;;;;;;;69.47;31.63;;;18.40;99.90;;;;;;5011475;28;20542;-76
2023/09/13 02:33:49;;;;;;;79.77;33.50;;;18.40;99.90;;;;;;5011502;28;20319;-75
2023/09/13 02:36:15;;;;;;;84.20;33.33;;;18.50;99.90;;;;;;5011732;28;20267;-74
2023/09/13 02:38:40;;;;;;;78.93;34.27;;;18.50;99.90;;;;;;5011498;28;20188;-74
2023/09/13 02:41:06;;;;;;;82.60;34.83;;;18.50;99.90;;;;;;5011165;28;20212;-75
2023/09/13 02:43:31;;;;;;;81.70;33.80;;;18.50;99.90;;;;;;5011209;28;20226;-75
2023/09/13 02:45:57;;;;;;;84.60;33.23;;;18.50;99.90;;;;;;5010883;28;20191;-74
2023/09/13 02:48:23;;;;;;;85.60;35.25;;;18.60;99.90;;;;;;5011296;28;20275;-75
2023/09/13 02:50:48;;;;;;;90.10;34.43;;;18.60;99.90;;;;;;5011546;28;20196;-75
2023/09/13 02:53:14;;;;;;;89.90;35.83;;;18.60;99.90;;;;;;5011312;28;20184;-75
2023/09/13 02:55:39;;;;;;;85.47;35.37;;;18.60;99.90;;;;;;5011335;28;20693;-75
2023/09/13 02:58:06;;;;;;;99.43;38.87;;;18.70;99.90;;;;;;5011088;28;20184;-75
2023/09/13 03:00:31;;;;;;;99.60;38.50;;;18.70;99.90;;;;;;5011088;28;20203;-75
2023/09/13 03:02:58;;;;;;;91.70;37.07;;;18.70;99.90;;;;;;5011253;28;20196;-74
2023/09/13 03:05:23;;;;;;;110.17;38.73;;;18.70;99.90;;;;;;5011255;28;20613;-75
2023/09/13 03:07:49;;;;;;;113.80;39.30;;;18.80;99.90;;;;;;5011165;28;20208;-75
2023/09/13 03:10:14;;;;;;;97.55;37.03;;;18.70;99.90;;;;;;5009751;28;20651;-75
2023/09/13 03:12:40;;;;;;;105.57;39.60;;;18.70;99.90;;;;;;5011359;28;20204;-75
2023/09/13 03:15:06;;;;;;;117.73;39.03;;;18.70;99.90;;;;;;5009602;28;20188;-75
2023/09/13 03:17:32;;;;;;;117.70;39.53;;;18.70;99.90;;;;;;5011326;28;20660;-75
2023/09/13 03:19:57;;;;;;;119.40;39.73;;;18.70;99.90;;;;;;5010670;28;20219;-75
2023/09/13 03:22:23;;;;;;;110.20;40.20;;;18.80;99.90;;;;;;5009585;28;20212;-75
2023/09/13 03:24:48;;;;;;;117.37;41.70;;;18.80;99.90;;;;;;5015881;28;20639;-75
2023/09/13 03:27:14;;;;;;;114.13;39.43;;;18.90;99.90;;;;;;5013046;28;20291;-74
2023/09/13 03:29:40;;;;;;;116.32;39.92;;;18.90;99.90;;;;;;5010786;28;20180;-77
2023/09/13 03:32:08;;;;;;;119.77;40.70;;;18.90;99.90;;;;;;5011258;28;20568;-75
2023/09/13 03:34:35;;;;;;;110.67;37.77;;;18.90;99.90;;;;;;5011178;28;20525;-75
2023/09/13 03:37:01;;;;;;;118.63;40.07;;;18.90;99.90;;;;;;5009854;28;20184;-75
2023/09/13 03:39:28;;;;;;;117.80;43.50;;;18.90;99.90;;;;;;5010609;28;20267;-75
2023/09/13 03:41:56;;;;;;;125.30;42.43;;;19.00;99.90;;;;;;5010570;28;20207;-75
2023/09/13 03:44:21;;;;;;;112.47;41.53;;;18.90;99.90;;;;;;5010508;28;20639;-75
2023/09/13 03:46:47;;;;;;;112.37;41.33;;;19.00;99.90;;;;;;5010789;28;20192;-74
2023/09/13 03:49:12;;;;;;;109.87;39.13;;;19.00;99.90;;;;;;5010626;28;20192;-74
2023/09/13 03:51:38;;;;;;;115.55;41.65;;;19.10;99.90;;;;;;5010803;28;20200;-75
2023/09/13 03:54:04;;;;;;;140.13;46.07;;;19.10;99.90;;;;;;5009756;28;20196;-76
2023/09/13 03:56:29;;;;;;;145.63;46.30;;;19.00;99.90;;;;;;5013210;28;20238;-76
2023/09/13 03:58:55;;;;;;;122.47;43.27;;;18.80;99.90;;;;;;5022451;28;20200;-76
2023/09/13 04:01:20;;;;;;;144.45;47.22;;;18.60;99.90;;;;;;5014217;28;20211;-75
2023/09/13 04:03:46;;;;;;;135.30;44.57;;;18.60;99.90;;;;;;5019351;28;20203;-75
2023/09/13 04:06:12;;;;;;;137.43;46.17;;;18.50;99.90;;;;;;5016881;28;20180;-74
2023/09/13 04:08:37;;;;;;;138.47;44.07;;;18.50;99.90;;;;;;5013716;28;20196;-75
2023/09/13 04:11:04;;;;;;;146.47;44.40;;;18.50;99.90;;;;;;5013948;28;20200;-75
2023/09/13 04:13:30;;;;;;;163.07;52.73;;;18.70;99.90;;;;;;5013474;28;20372;-75
2023/09/13 04:16:02;;;;;;;173.93;52.90;;;18.60;99.90;;;;;;5012503;28;20184;-75
2023/09/13 04:18:28;;;;;;;185.37;55.20;;;18.60;99.90;;;;;;5013467;28;20191;-75
2023/09/13 04:20:54;;;;;;;186.60;56.27;;;18.50;99.90;;;;;;5013815;28;20579;-76
2023/09/13 04:23:19;;;;;;;174.30;57.17;;;18.40;99.90;;;;;;5013715;28;20266;-76
2023/09/13 04:25:45;;;;;;;186.57;55.03;;;18.40;99.90;;;;;;5013827;28;20181;-75
2023/09/13 04:28:10;;;;;;;172.27;54.07;;;18.30;99.90;;;;;;5013015;28;20660;-76
2023/09/13 04:30:36;;;;;;;197.23;55.80;;;18.30;99.90;;;;;;5013520;28;20659;-75
2023/09/13 04:33:02;;;;;;;187.33;57.27;;;18.20;99.90;;;;;;5013561;28;20636;-75
2023/09/13 04:35:28;;;;;;;181.70;57.37;;;18.20;99.90;;;;;;5012082;28;20195;-75
2023/09/13 04:37:54;;;;;;;172.10;53.83;;;18.20;99.90;;;;;;5012985;28;20180;-75
2023/09/13 04:40:21;;;;;;;163.47;52.63;;;18.20;99.90;;;;;;5012862;28;20180;-75
2023/09/13 04:42:54;;;;;;;168.87;51.33;;;18.10;99.90;;;;;;5013346;28;20232;-76
2023/09/13 04:45:20;;;;;;;181.33;56.93;;;17.90;99.90;;;;;;5012838;28;20180;-76
2023/09/13 04:47:45;;;;;;;161.70;54.27;;;17.80;99.90;;;;;;5013175;28;20238;-76
2023/09/13 04:50:11;;;;;;;175.57;54.23;;;17.80;99.90;;;;;;5012883;28;20207;-75
2023/09/13 04:52:36;;;;;;;166.60;54.77;;;17.80;99.90;;;;;;5012937;28;21529;-75
2023/09/13 04:55:02;;;;;;;178.87;53.13;;;17.80;99.90;;;;;;5013142;28;20203;-75
2023/09/13 04:57:28;;;;;;;169.13;57.53;;;17.80;99.90;;;;;;5012938;28;20672;-76
2023/09/13 04:59:53;;;;;;;189.63;55.30;;;17.80;99.90;;;;;;5012697;28;20207;-75
2023/09/13 05:02:19;;;;;;;164.30;50.00;;;17.70;99.90;;;;;;5011395;28;20227;-76
2023/09/13 05:04:45;;;;;;;157.53;52.17;;;17.70;99.90;;;;;;5013041;28;20584;-76
2023/09/13 05:07:10;;;;;;;171.07;54.00;;;17.70;99.90;;;;;;5011185;28;20215;-76
2023/09/13 05:09:37;;;;;;;142.47;49.77;;;17.60;99.90;;;;;;5012573;28;20187;-75
2023/09/13 05:12:03;;;;;;;146.10;50.50;;;17.60;99.90;;;;;;5012329;28;20204;-75
2023/09/13 05:14:29;;;;;;;138.70;49.13;;;17.60;99.90;;;;;;5012502;28;20242;-75
2023/09/13 05:16:55;;;;;;;150.73;49.80;;;17.60;99.90;;;;;;5012756;28;20262;-75
2023/09/13 05:19:20;;;;;;;151.30;48.33;;;17.70;99.90;;;;;;5012230;28;20548;-75
2023/09/13 05:21:47;;;;;;;139.13;47.03;;;17.70;99.90;;;;;;5012379;28;20642;-75
2023/09/13 05:24:12;;;;;;;145.93;48.17;;;17.80;99.90;;;;;;5012601;28;20188;-75
2023/09/13 05:26:38;;;;;;;143.43;48.27;;;17.80;99.90;;;;;;5012310;28;20195;-75
2023/09/13 05:29:04;;;;;;;156.50;49.97;;;17.80;99.90;;;;;;5012334;28;20187;-75
2023/09/13 05:31:29;;;;;;;156.47;49.53;;;17.90;99.90;;;;;;5012323;28;20199;-75
2023/09/13 05:33:55;;;;;;;141.63;47.07;;;17.90;99.90;;;;;;5012062;28;20187;-75
2023/09/13 05:36:21;;;;;;;145.00;48.37;;;17.90;99.90;;;;;;5012169;28;20675;-75
2023/09/13 05:38:48;;;;;;;144.10;47.40;;;17.90;99.90;;;;;;5012147;28;20180;-75
2023/09/13 05:41:14;;;;;;;134.10;44.13;;;17.80;99.90;;;;;;5012046;28;20212;-76
2023/09/13 05:43:41;;;;;;;131.30;46.60;;;17.80;99.90;;;;;;5012092;28;20238;-75
2023/09/13 05:46:07;;;;;;;120.90;42.47;;;17.90;99.90;;;;;;5011692;28;20208;-74
2023/09/13 05:48:34;;;;;;;115.20;43.60;;;17.80;99.90;;;;;;5011803;28;20176;-75
2023/09/13 05:51:00;;;;;;;127.33;45.60;;;17.90;99.90;;;;;;5012020;28;20231;-75
2023/09/13 05:53:25;;;;;;;117.50;43.50;;;17.80;99.90;;;;;;5010360;28;20235;-75
2023/09/13 05:55:51;;;;;;;127.80;44.17;;;17.80;99.90;;;;;;5001366;28;20200;-75
2023/09/13 05:58:17;;;;;;;122.10;43.67;;;17.80;99.90;;;;;;5011567;28;20184;-75
2023/09/13 06:00:46;;;;;;;118.80;43.77;;;17.90;99.90;;;;;;5011661;28;20188;-75
2023/09/13 06:03:11;;;;;;;123.10;42.83;;;17.90;99.90;;;;;;5011804;28;20204;-75
2023/09/13 06:05:37;;;;;;;120.63;42.90;;;17.90;99.90;;;;;;5016570;28;20962;-75
2023/09/13 06:08:03;;;;;;;111.13;41.77;;;17.90;99.90;;;;;;5016265;28;20242;-75
2023/09/13 06:10:29;;;;;;;108.37;41.03;;;17.80;99.90;;;;;;5011534;28;20226;-76
2023/09/13 06:12:54;;;;;;;98.17;40.47;;;17.80;99.90;;;;;;5011799;28;20188;-74
2023/09/13 06:15:20;;;;;;;100.73;38.63;;;17.80;99.90;;;;;;5011420;28;20655;-75
2023/09/13 06:17:46;;;;;;;86.73;37.40;;;17.90;99.90;;;;;;5011007;28;20636;-75
2023/09/13 06:20:11;;;;;;;94.50;39.40;;;17.80;99.90;;;;;;5011590;28;20214;-74
2023/09/13 06:22:37;;;;;;;91.57;38.57;;;17.80;99.90;;;;;;5011301;28;20215;-74
2023/09/13 06:25:03;;;;;;;94.07;36.40;;;17.90;99.90;;;;;;5011392;28;20180;-74
2023/09/13 06:27:29;;;;;;;82.63;36.10;;;17.90;99.90;;;;;;5009112;28;20231;-74
2023/09/13 06:29:55;;;;;;;83.77;36.67;;;17.90;99.90;;;;;;5010989;28;20199;-75
2023/09/13 06:32:21;;;;;;;92.57;36.47;;;17.90;99.90;;;;;;5011157;28;20679;-73
2023/09/13 06:34:47;;;;;;;80.27;36.00;;;17.90;99.90;;;;;;5011323;28;20187;-73
2023/09/13 06:37:13;;;;;;;75.27;33.17;;;18.00;99.90;;;;;;5011405;28;20195;-74
2023/09/13 06:39:38;;;;;;;79.73;33.87;;;18.00;99.90;;;;;;5009518;28;20184;-74
2023/09/13 06:42:05;;;;;;;80.27;34.30;;;17.90;99.90;;;;;;5009366;28;20223;-74
2023/09/13 06:44:30;;;;;;;73.00;35.40;;;18.00;99.90;;;;;;5009722;28;20184;-74
2023/09/13 06:46:56;;;;;;;69.37;33.07;;;18.00;99.90;;;;;;5011244;28;20222;-76
2023/09/13 06:49:22;;;;;;;69.13;30.93;;;18.00;99.90;;;;;;5009614;28;20655;-73
2023/09/13 06:51:47;;;;;;;67.40;32.93;;;18.10;99.90;;;;;;5011034;28;20196;-74
2023/09/13 06:54:13;;;;;;;75.23;33.73;;;18.10;99.90;;;;;;5010932;28;20200;-73
2023/09/13 06:56:42;;;;;;;72.30;33.13;;;18.10;99.90;;;;;;5010384;28;20184;-75
2023/09/13 06:59:07;;;;;;;68.97;31.47;;;18.10;99.90;;;;;;5010785;28;20180;-74
2023/09/13 07:01:33;;;;;;;71.97;32.50;;;18.20;99.90;;;;;;5009508;28;20200;-74
2023/09/13 07:03:59;;;;;;;68.87;32.77;;;18.20;99.90;;;;;;5010727;28;20294;-74
2023/09/13 07:06:24;;;;;;;67.30;32.20;;;18.20;99.90;;;;;;5010951;28;20264;-74
2023/09/13 07:08:50;;;;;;;67.17;31.50;;;18.20;99.90;;;;;;5010851;28;20200;-73
2023/09/13 07:11:16;;;;;;;63.47;30.93;;;18.30;99.90;;;;;;5010705;28;20583;-74
2023/09/13 07:13:42;;;;;;;64.60;31.30;;;18.40;99.90;;;;;;5010922;28;20198;-74
2023/09/13 07:16:08;;;;;;;66.33;31.67;;;18.50;99.90;;;;;;5010876;28;20184;-74
2023/09/13 07:18:34;;;;;;;65.70;32.80;;;18.50;99.90;;;;;;5010352;28;20238;-74
2023/09/13 07:20:59;;;;;;;62.07;30.97;;;18.60;99.90;;;;;;5010970;28;20203;-74
2023/09/13 07:23:26;;;;;;;62.97;30.07;;;18.50;99.90;;;;;;5009009;28;20745;-74
2023/09/13 07:25:52;;;;;;;62.17;31.33;;;18.60;99.90;;;;;;5009760;28;20644;-74
2023/09/13 07:28:17;;;;;;;69.33;31.57;;;18.70;99.90;;;;;;5010614;28;20191;-74
2023/09/13 07:30:43;;;;;;;61.97;29.90;;;18.70;99.90;;;;;;5005480;28;20184;-74
2023/09/13 07:33:09;;;;;;;64.20;30.37;;;18.80;99.90;;;;;;5014547;28;20175;-74
2023/09/13 07:35:35;;;;;;;53.70;28.23;;;18.90;99.90;;;;;;5013877;28;20180;-74
2023/09/13 07:38:00;;;;;;;49.17;27.90;;;19.10;99.90;;;;;;5014099;28;20192;-74
2023/09/13 07:40:26;;;;;;;45.47;28.20;;;19.20;99.90;;;;;;5014120;28;20267;-74
2023/09/13 07:42:51;;;;;;;47.23;26.73;;;19.20;99.90;;;;;;5014200;28;20298;-74
2023/09/13 07:45:17;;;;;;;44.97;26.57;;;19.40;99.90;;;;;;5014322;28;20180;-74
2023/09/13 07:47:43;;;;;;;37.03;24.15;;;19.70;99.90;;;;;;5013914;28;20242;-74
2023/09/13 07:50:31;;;;;;;28.60;20.13;;;20.40;99.90;;;;;;5013345;28;20654;-73
2023/09/13 07:52:57;;;;;;;25.60;17.88;;;21.00;99.90;;;;;;5007841;28;20195;-73
2023/09/13 07:55:23;;;;;;;25.17;18.00;;;21.40;99.90;;;;;;5013945;28;20253;-73
2023/09/13 07:57:48;;;;;;;21.00;16.80;;;21.40;99.90;;;;;;5013996;28;20215;-74
2023/09/13 08:00:14;;;;;;;23.38;18.17;;;21.40;99.90;;;;;;5013765;28;20207;-74
2023/09/13 08:02:41;;;;;;;24.77;16.55;;;21.70;99.90;;;;;;5012254;28;20239;-73
2023/09/13 08:05:07;;;;;;;21.63;16.33;;;22.10;99.90;;;;;;5013523;28;20231;-73
2023/09/13 08:07:33;;;;;;;21.13;16.25;;;22.50;99.90;;;;;;5013745;28;20511;-72
2023/09/13 08:10:01;;;;;;;23.75;16.38;;;22.60;99.90;;;;;;5013033;28;20196;-73
2023/09/13 08:12:26;;;;;;;21.55;15.70;;;22.50;99.90;;;;;;5013483;28;20593;-74
2023/09/13 08:14:52;;;;;;;24.65;16.75;;;22.20;99.90;;;;;;5013772;28;20226;-74
2023/09/13 08:17:18;;;;;;;22.08;15.73;;;21.90;99.90;;;;;;5013403;28;20207;-72
2023/09/13 08:19:43;;;;;;;22.25;16.20;;;21.60;99.90;;;;;;5013254;28;20550;-73
2023/09/13 08:22:09;;;;;;;25.10;17.67;;;21.30;99.90;;;;;;5013305;28;20204;-73
2023/09/13 08:24:35;;;;;;;24.02;17.25;;;21.10;99.90;;;;;;5013363;28;20184;-74
2023/09/13 08:27:00;;;;;;;25.05;16.45;;;21.10;99.90;;;;;;5013348;28;20176;-73
2023/09/13 08:29:26;;;;;;;23.95;17.02;;;21.00;99.90;;;;;;5013117;28;20176;-74
2023/09/13 08:31:51;;;;;;;22.30;16.35;;;20.90;99.90;;;;;;5013591;28;20200;-74
2023/09/13 08:34:17;;;;;;;21.65;16.17;;;20.80;99.90;;;;;;5013594;28;20639;-74
2023/09/13 08:36:43;;;;;;;23.63;16.80;;;20.90;99.90;;;;;;5011740;28;20176;-74
2023/09/13 08:39:08;;;;;;;20.52;15.57;;;21.00;99.90;;;;;;5013132;28;20172;-74
2023/09/13 08:41:34;;;;;;;22.98;16.05;;;21.20;99.90;;;;;;5012320;28;20231;-74
2023/09/13 08:44:03;;;;;;;21.70;14.93;;;21.30;99.90;;;;;;5012740;28;20235;-74
2023/09/13 08:46:30;;;;;;;20.73;14.93;;;21.40;99.90;;;;;;5012844;28;20219;-74
2023/09/13 08:48:57;;;;;;;20.67;14.18;;;21.40;99.90;;;;;;5011600;28;20587;-74
2023/09/13 08:51:25;;;;;;;22.98;14.98;;;21.30;99.90;;;;;;5012957;28;20257;-73
2023/09/13 08:53:51;;;;;;;19.80;13.90;;;21.20;99.90;;;;;;5012840;28;20219;-73
2023/09/13 08:56:21;;;;;;;20.43;14.30;;;21.10;99.90;;;;;;5012953;28;20180;-72
2023/09/13 08:58:47;;;;;;;22.48;14.25;;;21.10;99.90;;;;;;5012278;28;20199;-74
2023/09/13 09:01:16;;;;;;;18.08;13.38;;;21.10;99.90;;;;;;5011538;28;20204;-74
2023/09/13 09:03:42;;;;;;;23.42;15.20;;;21.10;99.90;;;;;;5011386;28;20208;-74
2023/09/13 09:06:09;;;;;;;21.30;14.90;;;21.00;99.90;;;;;;5012729;28;20585;-75
2023/09/13 09:08:39;;;;;;;17.92;13.48;;;21.00;99.90;;;;;;5012331;28;20296;-73
2023/09/13 09:11:05;;;;;;;21.55;13.65;;;21.00;99.90;;;;;;5012618;28;20211;-74
2023/09/13 09:13:32;;;;;;;17.15;12.57;;;21.00;99.90;;;;;;5012784;28;20176;-73
2023/09/13 09:15:59;;;;;;;17.00;12.80;;;21.00;99.90;;;;;;5012597;28;20651;-73
2023/09/13 09:18:27;;;;;;;16.85;12.52;;;21.10;99.90;;;;;;5012394;28;20219;-74
2023/09/13 09:20:54;;;;;;;18.70;12.85;;;21.20;99.90;;;;;;5012347;28;20235;-73
2023/09/13 09:23:23;;;;;;;17.88;13.55;;;21.20;99.90;;;;;;5011309;28;20215;-73
2023/09/13 09:25:50;;;;;;;19.20;13.10;;;21.10;99.90;;;;;;5012112;28;20262;-73
2023/09/13 09:28:16;;;;;;;16.48;13.18;;;21.10;99.90;;;;;;5010802;28;20176;-72
2023/09/13 09:30:44;;;;;;;19.40;13.32;;;21.10;99.90;;;;;;5010588;28;20194;-73
2023/09/13 09:33:10;;;;;;;16.58;13.05;;;21.10;99.90;;;;;;5012451;28;20180;-74
2023/09/13 09:35:36;;;;;;;17.77;13.50;;;21.00;99.90;;;;;;5012099;28;20202;-74
2023/09/13 09:38:03;;;;;;;17.50;12.48;;;20.90;99.90;;;;;;5011647;28;20172;-73
2023/09/13 09:40:37;;;;;;;19.73;13.23;;;20.90;99.90;;;;;;5012261;28;20609;-73
2023/09/13 09:43:03;;;;;;;15.52;13.70;;;21.10;99.90;;;;;;5012255;28;20199;-73
2023/09/13 09:45:29;;;;;;;16.38;12.48;;;21.20;99.90;;;;;;5011922;28;20215;-73
2023/09/13 09:47:56;;;;;;;20.10;13.13;;;21.30;99.90;;;;;;5012023;28;20188;-73
2023/09/13 09:50:22;;;;;;;15.23;11.68;;;21.50;99.90;;;;;;5011847;28;20179;-73
2023/09/13 09:52:49;;;;;;;17.42;11.10;;;21.50;99.90;;;;;;5010654;28;20208;-74
2023/09/13 09:55:16;;;;;;;12.73;10.20;;;21.60;99.90;;;;;;5011896;28;20204;-73
2023/09/13 09:57:46;;;;;;;14.95;9.85;;;21.60;99.90;;;;;;5011606;28;20651;-74
2023/09/13 10:00:14;;;;;;;15.88;10.38;;;21.60;99.90;;;;;;5011567;28;20188;-73
2023/09/13 10:02:39;;;;;;;14.05;10.77;;;21.60;99.90;;;;;;5011410;28;20207;-73
2023/09/13 10:05:05;;;;;;;12.75;10.45;;;21.60;99.90;;;;;;5011924;28;20195;-72
2023/09/13 10:07:40;;;;;;;16.52;10.38;;;21.70;99.90;;;;;;5011751;28;20732;-73
2023/09/13 10:10:09;;;;;;;15.32;11.20;;;21.80;99.90;;;;;;5011451;28;20175;-73
2023/09/13 10:12:44;;;;;;;13.50;10.07;;;21.80;99.90;;;;;;5011402;28;20203;-73
2023/09/13 10:15:11;;;;;;;15.75;10.93;;;21.80;99.90;;;;;;5011447;28;20249;-72
2023/09/13 10:17:39;;;;;;;16.27;10.82;;;21.80;99.90;;;;;;5011457;28;20195;-72
2023/09/13 10:20:06;;;;;;;12.85;10.52;;;21.80;99.90;;;;;;5011285;28;20590;-73
2023/09/13 10:22:35;;;;;;;16.20;11.63;;;21.80;99.90;;;;;;5011222;28;20460;-72
2023/09/13 10:25:04;;;;;;;18.08;11.00;;;21.70;99.90;;;;;;5010298;28;20172;-73
2023/09/13 10:27:33;;;;;;;16.23;10.98;;;21.80;99.90;;;;;;5011398;28;20203;-73
2023/09/13 10:30:03;;;;;;;14.90;10.90;;;21.90;99.90;;;;;;5010742;28;20187;-73
2023/09/13 10:32:39;;;;;;;16.48;10.63;;;21.80;99.90;;;;;;5011343;28;20200;-73
2023/09/13 10:35:06;;;;;;;15.40;11.20;;;21.80;99.90;;;;;;5011513;28;20202;-73
2023/09/13 10:37:50;;;;;;;14.30;11.10;;;21.80;99.90;;;;;;5011183;28;20184;-73
2023/09/13 10:40:21;;;;;;;14.60;10.02;;;21.90;99.90;;;;;;5006131;28;20238;-73
2023/09/13 10:42:49;;;;;;;14.60;11.38;;;22.10;99.90;;;;;;5010998;28;20192;-72
2023/09/13 10:45:18;;;;;;;12.55;8.98;;;22.30;99.90;;;;;;5011249;28;20520;-73
2023/09/13 10:47:49;;;;;;;17.55;10.32;;;22.50;99.90;;;;;;5010738;28;20262;-72
2023/09/13 10:50:15;;;;;;;12.55;9.18;;;22.80;99.90;;;;;;5011107;28;20176;-72
2023/09/13 10:52:43;;;;;;;12.75;9.27;;;23.20;99.90;;;;;;5010806;28;20299;-73
2023/09/13 10:55:11;;;;;;;10.70;8.50;;;23.50;99.90;;;;;;5011219;28;20187;-73
2023/09/13 10:57:39;;;;;;;13.38;8.27;;;23.40;99.90;;;;;;5010638;28;20598;-73
2023/09/13 11:00:16;;;;;;;10.93;8.38;;;23.30;99.90;;;;;;5010799;28;20216;-74
2023/09/13 11:02:44;;;;;;;10.25;7.90;;;23.10;99.90;;;;;;5010915;28;20196;-73
2023/09/13 11:05:11;;;;;;;9.98;7.40;;;23.00;99.90;;;;;;5015189;28;20179;-72
2023/09/13 11:07:41;;;;;;;9.30;7.78;;;22.90;99.90;;;;;;5014994;28;20647;-73
2023/09/13 11:10:17;;;;;;;10.57;7.47;;;23.00;99.90;;;;;;5014877;28;20176;-72
2023/09/13 11:12:50;;;;;;;8.68;7.63;;;23.10;99.90;;;;;;5014630;28;20617;-72
2023/09/13 11:15:23;;;;;;;13.95;7.15;;;23.10;99.90;;;;;;5013719;28;20231;-72
2023/09/13 11:17:54;;;;;;;7.55;6.75;;;23.00;44.10;;;;;;5014660;28;20179;-73
2023/09/13 11:20:24;;;;;;;8.95;6.80;;;23.10;48.90;;;;;;5014616;28;20244;-73
2023/09/13 11:23:10;;;;;;;8.95;7.10;;;23.10;1.00;;;;;;5014323;28;20207;-73
2023/09/13 11:25:40;;;;;;;9.75;6.78;;;23.10;1.00;;;;;;5014387;28;20184;-73
2023/09/13 11:28:08;;;;;;;9.70;7.25;;;23.10;1.00;;;;;;5014439;28;20263;-72
2023/09/13 11:30:51;;;;;;;10.38;7.60;;;23.00;1.00;;;;;;5014533;28;20181;-71
2023/09/13 11:33:18;;;;;;;8.85;7.38;;;23.00;1.00;;;;;;5014875;28;20246;-72
2023/09/13 11:35:44;;;;;;;10.75;7.43;;;22.90;1.00;;;;;;5014291;28;20275;-72
2023/09/13 11:38:12;;;;;;;8.90;6.82;;;23.00;1.00;;;;;;5014192;28;20200;-72
2023/09/13 11:40:40;;;;;;;8.55;5.80;;;22.90;1.00;;;;;;5013922;28;20184;-73
2023/09/13 11:43:10;;;;;;;7.50;5.78;;;22.40;1.00;;;;;;5014289;28;20200;-73
2023/09/13 11:45:38;;;;;;;5.00;4.53;;;21.70;99.90;;;;;;5014074;28;20841;-73
2023/09/13 11:48:06;;;;;;;6.97;6.37;;;20.70;99.90;;;;;;5014030;28;20172;-72
2023/09/13 11:50:44;;;;;;;4.67;4.27;;;20.10;99.90;;;;;;5014287;28;20642;-72
2023/09/13 11:53:20;;;;;;;3.93;3.63;;;19.40;99.90;;;;;;5006684;28;20180;-73
2023/09/13 11:55:56;;;;;;;4.03;3.57;;;19.10;99.90;;;;;;5012688;28;20187;-73
2023/09/13 11:58:35;;;;;;;3.57;3.27;;;19.00;99.90;;;;;;5013356;28;20556;-73
2023/09/13 12:01:05;;;;;;;3.43;3.23;;;18.90;99.90;;;;;;5013526;28;20235;-72
2023/09/13 12:03:33;;;;;;;4.10;3.80;;;18.70;99.90;;;;;;5014164;28;20196;-72
2023/09/13 12:05:59;;;;;;;5.13;4.73;;;18.50;99.90;;;;;;5004606;28;20690;-73
2023/09/13 12:08:29;;;;;;;5.90;5.40;;;18.30;99.90;;;;;;5013682;28;20179;-72
2023/09/13 12:11:04;;;;;;;8.30;7.60;;;18.30;99.90;;;;;;5013729;28;20291;-73
2023/09/13 12:13:41;;;;;;;9.13;8.30;;;18.20;99.90;;;;;;5013908;28;20210;-72
2023/09/13 12:16:07;;;;;;;9.83;8.93;;;18.00;99.90;;;;;;5011797;28;20186;-71
2023/09/13 12:18:34;;;;;;;11.63;10.47;;;18.10;99.90;;;;;;5013392;28;20172;-71
2023/09/13 12:21:00;;;;;;;14.33;11.40;;;18.10;99.90;;;;;;5013443;28;20203;-72
2023/09/13 12:23:26;;;;;;;14.03;12.63;;;18.10;99.90;;;;;;5013769;28;20211;-72
2023/09/13 12:25:56;;;;;;;15.93;14.00;;;18.00;99.90;;;;;;5013741;28;20250;-71